Time;durP1;ratioP1;P1;durP2;ratioP2;P2;SDS_P1;SDS_P2;PMS_P1;PMS_P2;Temp;Humidity;BMP_temperature;BMP_pressure;BME280_temperature;BME280_humidity;BME280_pressure;Samples;Min_cycle;Max_cycle;Signal;HPM_P1;HPM_P2
2022/01/23 00:02:27;;;;;;;3.73;1.30;;;-2.50;90.00;;;-4.85;68.88;101133.13;10403832;27;96632;-81
2022/01/23 00:07:31;;;;;;;3.33;1.33;;;-2.60;88.80;;;-4.93;69.10;101135.09;10411522;27;96794;-80
2022/01/23 00:12:40;;;;;;;3.70;1.20;;;-2.70;90.00;;;-4.99;69.22;101133.53;10395050;27;96645;-80
2022/01/23 00:17:43;;;;;;;2.40;1.40;;;-2.70;90.70;;;-5.00;69.33;101123.22;10414266;27;97659;-80
2022/01/23 00:22:50;;;;;;;4.50;1.20;;;-2.70;91.40;;;-4.91;69.90;101131.56;10389512;27;96482;-79
2022/01/23 00:33:19;;;;;;;3.58;1.33;;;-2.70;92.00;;;-4.67;69.49;101137.75;10400679;27;96653;-79
2022/01/23 00:38:22;;;;;;;2.47;1.33;;;-2.60;92.30;;;-4.62;68.87;101135.84;10422387;27;96812;-79
2022/01/23 00:43:32;;;;;;;3.20;1.20;;;-2.50;92.30;;;-4.62;68.80;101145.34;10428577;27;96560;-79
2022/01/23 00:48:40;;;;;;;5.53;1.40;;;-2.50;92.50;;;-4.62;68.69;101151.41;10372744;28;96497;-79
2022/01/23 00:53:43;;;;;;;3.47;1.30;;;-2.50;92.50;;;-4.66;68.72;101147.22;10380509;27;98658;-79
2022/01/23 00:58:46;;;;;;;4.83;1.23;;;-2.60;92.50;;;-4.72;69.24;101155.19;10391743;27;96402;-78
2022/01/23 01:03:50;;;;;;;7.83;2.33;;;-2.60;92.70;;;-4.77;68.98;101146.69;10384891;28;96512;-79
2022/01/23 01:09:01;;;;;;;4.67;1.97;;;-2.60;92.90;;;-4.83;69.43;101149.47;10400064;27;97793;-79
2022/01/23 01:35:26;;;;;;;2.55;0.95;;;-2.60;93.30;;;-4.75;69.46;101139.72;10372394;28;96511;-80
2022/01/23 01:40:29;;;;;;;3.80;1.30;;;-2.60;93.90;;;-4.62;69.11;101143.63;10356272;28;96510;-78
2022/01/23 01:45:34;;;;;;;4.17;1.70;;;-2.50;93.70;;;-4.54;68.85;101147.72;10387203;27;96948;-79
2022/01/23 01:50:43;;;;;;;4.20;1.50;;;-2.40;93.50;;;-4.55;68.73;101148.63;10388649;28;98286;-79
2022/01/23 01:55:52;;;;;;;5.10;1.70;;;-2.40;93.60;;;-4.60;68.67;101144.44;10447445;27;96484;-79
2022/01/23 02:00:58;;;;;;;4.10;1.30;;;-2.50;93.60;;;-4.63;69.36;101152.28;10379587;27;97382;-79
2022/01/23 02:11:41;;;;;;;;;;;-2.50;94.40;;;-4.59;69.69;101145.28;10387933;28;97149;-79
2022/01/23 02:59:51;;;;;;;4.43;1.63;;;-2.50;96.20;;;-4.50;69.95;101147.56;10395562;27;96745;-81
2022/01/23 03:04:59;;;;;;;3.73;1.40;;;-2.50;96.30;;;-4.40;69.80;101142.94;10393820;27;97299;-81
2022/01/23 03:10:18;;;;;;;3.53;1.53;;;-2.40;96.40;;;-4.23;69.11;101135.44;10376837;28;96476;-81
2022/01/23 03:26:21;;;;;;;2.88;1.42;;;-2.00;95.00;;;-3.72;66.66;101139.72;10430544;27;96662;-81
2022/01/23 03:31:29;;;;;;;2.90;1.60;;;-1.80;94.60;;;-3.57;66.02;101139.19;10382312;27;99201;-81
2022/01/23 03:36:33;;;;;;;4.83;1.30;;;-1.60;93.60;;;-3.47;65.39;101142.34;10374757;28;96495;-80
2022/01/23 03:41:40;;;;;;;1.90;1.07;;;-1.50;93.40;;;-3.40;65.01;101141.19;10386944;28;96809;-81
2022/01/23 03:46:51;;;;;;;4.10;1.50;;;-1.40;92.60;;;-3.30;64.49;101144.28;10388122;27;97137;-81
2022/01/23 03:51:53;;;;;;;2.37;0.90;;;-1.40;92.00;;;-3.25;64.27;101139.78;10380862;27;96620;-81
2022/01/23 03:56:59;;;;;;;4.37;1.40;;;-1.30;91.90;;;-3.20;64.07;101130.06;10423303;27;96498;-80
2022/01/23 04:02:04;;;;;;;3.40;1.10;;;-1.20;91.80;;;-3.16;63.72;101125.59;10414330;27;96649;-80
2022/01/23 04:07:22;;;;;;;3.50;1.40;;;-1.20;91.50;;;-3.13;63.55;101123.72;10409441;28;96481;-80
2022/01/23 04:12:41;;;;;;;3.17;1.20;;;-1.20;90.90;;;-3.10;63.34;101133.16;10429489;27;96520;-80
2022/01/23 04:33:43;;;;;;;1.93;1.00;;;-1.00;90.10;;;-2.96;62.82;101152.53;10403345;27;97071;-80
2022/01/23 05:00:12;;;;;;;3.80;1.58;;;-0.90;88.80;;;-3.14;62.76;101145.41;10408557;27;96741;-80
2022/01/23 05:05:16;;;;;;;4.93;1.43;;;-1.00;88.80;;;-3.21;62.88;101151.75;10412653;27;96883;-80
2022/01/23 05:10:19;;;;;;;5.10;1.33;;;-1.10;88.40;;;-3.27;62.87;101146.78;10395951;28;96571;-80
2022/01/23 05:15:23;;;;;;;4.33;1.53;;;-1.10;88.80;;;-3.34;63.28;101168.72;10389240;28;96639;-79
2022/01/23 05:20:28;;;;;;;2.20;1.07;;;-1.20;89.30;;;-3.41;63.14;101165.50;10387442;27;96585;-80
2022/01/23 05:25:34;;;;;;;3.47;1.40;;;-1.20;89.10;;;-3.38;63.29;101173.16;10375985;27;96889;-80
2022/01/23 05:30:38;;;;;;;4.77;1.77;;;-1.30;89.20;;;-3.37;63.12;101171.41;10413599;27;96613;-80
2022/01/23 05:35:41;;;;;;;5.97;1.50;;;-1.20;89.30;;;-3.37;63.52;101181.81;10416821;27;96582;-80
2022/01/23 05:40:44;;;;;;;2.67;1.10;;;-1.20;89.40;;;-3.35;63.57;101198.22;10432577;27;96667;-82
2022/01/23 05:45:48;;;;;;;4.27;1.80;;;-1.20;89.20;;;-3.29;63.42;101205.78;10401967;27;96602;-81
2022/01/23 05:50:51;;;;;;;4.20;1.97;;;-1.20;89.10;;;-3.21;63.12;101200.31;10417824;27;96610;-81
2022/01/23 05:55:54;;;;;;;4.23;1.57;;;-1.10;88.90;;;-3.14;62.69;101209.56;10421950;27;98362;-81
2022/01/23 06:00:57;;;;;;;5.07;1.50;;;-1.10;87.80;;;-3.12;62.69;101203.44;10393577;27;96929;-80
2022/01/23 06:06:00;;;;;;;5.03;1.63;;;-1.10;88.20;;;-3.08;62.51;101204.16;10405223;28;96524;-80
2022/01/23 06:11:03;;;;;;;7.30;2.83;;;-1.00;88.10;;;-3.05;62.31;101197.09;10429409;27;98131;-80
2022/01/23 06:16:06;;;;;;;5.17;2.17;;;-1.00;87.30;;;-2.99;62.06;101199.47;10422982;27;96527;-80
2022/01/23 06:21:09;;;;;;;7.13;1.97;;;-1.00;87.20;;;-2.91;62.32;101211.34;10435354;27;96701;-80
2022/01/23 06:26:11;;;;;;;8.67;4.17;;;-0.90;87.50;;;-2.83;62.05;101209.28;10424876;27;96611;-79
2022/01/23 06:31:15;;;;;;;4.37;1.60;;;-0.80;86.40;;;-2.81;61.71;101218.75;10436908;27;97111;-79
2022/01/23 06:36:18;;;;;;;6.40;1.90;;;-0.80;87.10;;;-2.74;61.52;101224.56;10419138;27;96645;-80
2022/01/23 06:41:21;;;;;;;5.47;2.40;;;-0.70;86.70;;;-2.69;61.16;101238.25;10400249;27;97132;-77
2022/01/23 06:46:24;;;;;;;11.27;2.40;;;-0.70;85.20;;;-2.62;61.17;101255.31;10415432;27;97010;-78
2022/01/23 06:51:27;;;;;;;8.57;3.00;;;-0.60;86.00;;;-2.55;61.33;101256.78;10430903;27;96510;-80
2022/01/23 06:56:30;;;;;;;4.50;1.83;;;-0.50;86.60;;;-2.51;60.73;101262.72;10416251;28;96783;-79
2022/01/23 07:01:33;;;;;;;5.97;1.57;;;-0.50;85.30;;;-2.47;60.56;101249.50;10419264;27;97400;-78
2022/01/23 07:06:36;;;;;;;5.83;2.10;;;-0.40;84.70;;;-2.41;60.12;101253.63;10394343;27;96538;-79
2022/01/23 07:11:43;;;;;;;5.43;1.67;;;-0.40;84.50;;;-2.37;60.05;101259.56;10428749;27;97059;-79
2022/01/23 07:16:47;;;;;;;8.90;2.57;;;-0.30;83.40;;;-2.32;60.05;101260.25;10422516;27;96688;-79
2022/01/23 07:21:50;;;;;;;8.00;3.63;;;-0.30;83.80;;;-2.27;60.09;101260.91;10427126;27;96608;-79
2022/01/23 07:26:53;;;;;;;24.90;8.70;;;-0.30;84.70;;;-2.21;60.40;101261.53;10416213;27;96862;-79
2022/01/23 07:36:59;;;;;;;31.77;12.60;;;-0.10;84.10;;;-2.12;60.56;101260.28;10403163;27;97127;-79
2022/01/23 07:42:02;;;;;;;11.47;5.60;;;-0.10;84.50;;;-2.06;60.54;101265.25;10425926;27;98412;-79
2022/01/23 07:47:06;;;;;;;10.47;3.57;;;0.00;84.30;;;-2.01;59.70;101258.13;10425324;27;96670;-79
2022/01/23 07:52:09;;;;;;;7.90;2.13;;;0.00;83.60;;;-1.96;59.16;101257.94;10418866;27;96580;-79
2022/01/23 07:57:12;;;;;;;7.13;2.57;;;0.10;83.10;;;-1.91;58.58;101262.06;10415295;27;96580;-81
2022/01/23 08:02:15;;;;;;;5.23;1.90;;;0.10;80.70;;;-1.84;58.72;101252.22;10387060;27;97701;-78
2022/01/23 08:12:31;;;;;;;6.80;2.43;;;0.20;82.10;;;-1.73;58.18;101265.66;10398609;28;96566;-78
2022/01/23 08:17:34;;;;;;;6.67;2.07;;;0.20;80.70;;;-1.67;58.03;101278.44;10398388;27;97123;-78
2022/01/23 08:22:37;;;;;;;6.43;2.10;;;0.30;80.40;;;-1.60;58.26;101284.25;10414304;27;96541;-80
2022/01/23 08:27:40;;;;;;;6.07;2.23;;;0.30;81.20;;;-1.52;58.15;101284.75;10365327;27;96564;-78
2022/01/23 08:32:44;;;;;;;9.43;4.10;;;0.40;80.80;;;-1.43;57.99;101296.56;10381820;28;96697;-76
2022/01/23 08:37:47;;;;;;;7.43;3.07;;;0.50;81.60;;;-1.36;57.85;101291.03;10366785;28;96642;-77
2022/01/23 08:42:53;;;;;;;5.00;2.10;;;0.50;79.70;;;-1.33;57.31;101286.59;10399765;28;96910;-77
2022/01/23 08:47:56;;;;;;;4.53;1.80;;;0.50;79.90;;;-1.29;57.01;101289.00;10357841;28;96576;-76
2022/01/23 08:52:59;;;;;;;9.63;2.97;;;0.60;78.50;;;-1.28;57.01;101290.69;10376326;28;96885;-77
2022/01/23 08:58:02;;;;;;;6.83;2.67;;;0.60;78.80;;;-1.16;57.25;101282.34;10382889;28;96422;-78
2022/01/23 09:03:05;;;;;;;6.93;2.80;;;0.70;79.50;;;-1.10;57.09;101292.50;10383606;28;98400;-78
2022/01/23 09:08:08;;;;;;;6.10;2.67;;;0.80;78.70;;;-1.01;57.10;101290.44;10351859;28;97620;-78
2022/01/23 09:13:27;;;;;;;6.63;2.13;;;0.80;78.80;;;-0.96;56.00;101302.38;10409546;28;96570;-77
2022/01/23 09:18:31;;;;;;;9.03;2.37;;;0.90;76.40;;;-0.93;56.08;101307.44;10421875;28;96444;-77
2022/01/23 09:23:34;;;;;;;14.67;2.77;;;0.90;77.20;;;-0.90;56.24;101301.22;10341513;28;97292;-78
2022/01/23 09:28:39;;;;;;;7.57;1.70;;;0.90;76.80;;;-0.82;56.29;101279.09;10379430;28;96474;-78
2022/01/23 09:33:42;;;;;;;6.47;2.63;;;1.00;76.70;;;-0.71;56.10;101291.69;10440442;27;96498;-78
2022/01/23 09:38:45;;;;;;;7.70;3.50;;;1.10;76.50;;;-0.53;56.42;101296.97;10433451;27;96357;-78
2022/01/23 09:43:50;;;;;;;8.03;4.67;;;1.30;77.50;;;-0.38;55.59;101302.31;10420149;28;96438;-77
2022/01/23 09:48:54;;;;;;;5.83;2.40;;;1.40;77.80;;;-0.30;54.94;101308.06;10439100;27;97707;-77
2022/01/23 09:53:58;;;;;;;4.67;2.50;;;1.50;75.30;;;-0.15;55.11;101297.81;10409247;27;96617;-77
2022/01/23 09:59:01;;;;;;;7.93;2.83;;;1.60;76.30;;;0.00;54.59;101289.25;10419494;28;96403;-78
2022/01/23 10:04:04;;;;;;;4.03;2.27;;;1.80;76.00;;;0.14;54.50;101299.88;10413831;27;96546;-77
2022/01/23 10:09:07;;;;;;;6.23;2.70;;;1.90;73.90;;;0.27;54.12;101300.13;10440805;27;96479;-77
2022/01/23 10:14:10;;;;;;;9.10;3.00;;;2.00;75.10;;;0.25;53.20;101284.50;10445508;27;96320;-77
2022/01/23 10:19:17;;;;;;;5.47;2.90;;;2.10;73.80;;;0.29;53.28;101292.19;10419969;27;96529;-78
2022/01/23 10:24:20;;;;;;;6.43;2.53;;;2.10;72.80;;;0.36;53.36;101294.44;10403086;27;96680;-77
2022/01/23 10:29:35;;;;;;;7.60;2.57;;;2.20;72.00;;;0.45;54.01;101282.66;10401872;28;96448;-77
2022/01/23 10:34:40;;;;;;;4.60;2.10;;;2.20;73.80;;;0.45;52.50;101280.06;10434769;27;97014;-77
2022/01/23 10:39:46;;;;;;;7.70;2.90;;;2.30;71.30;;;0.49;52.51;101284.22;10436798;27;97886;-77
2022/01/23 10:50:10;;;;;;;5.20;2.33;;;2.20;71.10;;;0.44;52.37;101278.38;10419511;27;96445;-77
2022/01/23 10:55:44;;;;;;;4.87;2.50;;;2.20;70.70;;;0.45;52.88;101272.22;10415867;28;98199;-78
2022/01/23 11:00:47;;;;;;;9.97;3.13;;;2.20;70.70;;;0.55;52.10;101281.28;10395826;28;96796;-78
2022/01/23 11:05:52;;;;;;;7.87;3.50;;;2.30;70.90;;;0.72;52.71;101275.19;10399195;28;96627;-77
2022/01/23 11:11:03;;;;;;;8.43;2.90;;;2.40;71.10;;;0.87;51.48;101274.41;10388174;27;98483;-78
2022/01/23 11:21:28;;;;;;;5.60;2.85;;;2.70;68.90;;;1.11;50.68;101282.75;10401332;28;96582;-78
2022/01/23 11:27:02;;;;;;;6.47;2.60;;;2.80;69.20;;;1.15;50.43;101265.97;10379521;27;96555;-78
2022/01/23 11:32:07;;;;;;;9.33;3.00;;;2.90;67.50;;;1.08;50.37;101261.97;10403309;27;96522;-78
2022/01/23 11:37:15;;;;;;;5.00;2.90;;;2.80;69.10;;;1.08;50.49;101261.97;10421031;27;96597;-78
2022/01/23 11:58:36;;;;;;;6.93;2.95;;;2.90;67.10;;;1.08;50.76;101261.97;10415033;27;96551;-77
2022/01/23 12:04:08;;;;;;;6.60;3.00;;;2.90;67.10;;;0.98;50.99;101259.00;10399845;27;97011;-76
2022/01/23 12:09:16;;;;;;;8.68;3.60;;;2.90;67.60;;;0.84;51.76;101256.25;10372830;28;96520;-77
2022/01/23 12:20:01;;;;;;;7.07;3.37;;;2.60;68.70;;;0.70;52.51;101264.81;10394776;27;96768;-77
2022/01/23 12:25:38;;;;;;;6.40;2.67;;;2.60;69.50;;;0.78;52.52;101252.19;10414510;27;97003;-77
2022/01/23 12:30:44;;;;;;;7.70;3.53;;;2.60;69.00;;;0.86;52.42;101253.56;10420027;27;96713;-76
2022/01/23 12:35:53;;;;;;;7.57;3.10;;;2.70;69.50;;;0.95;52.68;101246.06;10387400;27;96506;-76
2022/01/23 12:41:30;;;;;;;7.73;3.60;;;2.80;70.00;;;1.02;52.29;101243.94;10371660;28;96678;-76
2022/01/23 12:46:36;;;;;;;5.03;2.53;;;2.90;69.40;;;1.04;51.67;101242.13;10426985;27;98162;-75
2022/01/23 12:51:41;;;;;;;5.37;2.90;;;2.90;67.90;;;1.10;51.46;101238.34;10369911;27;97034;-78
2022/01/23 12:56:46;;;;;;;9.07;2.90;;;2.90;67.00;;;1.10;50.91;101247.03;10422334;27;96607;-75
2022/01/23 13:01:56;;;;;;;6.47;2.90;;;2.90;67.60;;;1.09;51.04;101245.34;10399031;27;96638;-75
2022/01/23 13:07:19;;;;;;;6.10;3.27;;;2.90;67.00;;;1.09;51.15;101247.97;10389313;27;96835;-78
2022/01/23 13:12:36;;;;;;;;;;;2.90;67.60;;;1.10;50.75;101251.41;10425564;27;96495;-78
2022/01/23 13:33:48;;;;;;;;;;;2.90;67.50;;;1.02;51.10;101254.41;10372733;28;97924;-75
2022/01/23 13:38:55;;;;;;;10.77;4.33;;;2.80;67.00;;;1.02;51.53;101264.91;10385895;27;97120;-76
2022/01/23 13:59:52;;;;;;;6.17;3.23;;;3.00;67.40;;;1.12;51.61;101270.50;10432314;27;96671;-77
2022/01/23 14:05:15;;;;;;;6.50;3.20;;;3.00;67.60;;;1.13;50.88;101266.94;10384722;28;96593;-77
2022/01/23 14:10:31;;;;;;;7.77;3.37;;;3.00;66.70;;;1.11;50.87;101269.66;10437319;27;96678;-77
2022/01/23 14:15:35;;;;;;;8.17;3.47;;;3.00;66.40;;;1.11;51.12;101264.41;10444971;27;98685;-77
2022/01/23 14:20:44;;;;;;;10.37;3.73;;;2.90;66.90;;;1.10;51.13;101267.97;10435488;27;96425;-76
2022/01/23 14:25:52;;;;;;;7.70;3.20;;;2.90;66.80;;;1.08;51.02;101275.06;10455607;27;96505;-77
2022/01/23 14:30:59;;;;;;;9.77;3.03;;;2.90;66.80;;;1.05;51.20;101270.81;10398634;27;96498;-77
2022/01/23 14:36:25;;;;;;;4.83;2.33;;;2.90;67.00;;;1.01;50.80;101269.28;10411829;27;97215;-76
2022/01/23 14:41:33;;;;;;;9.70;3.57;;;2.90;65.90;;;1.00;50.52;101270.22;10395142;28;96765;-77
2022/01/23 14:46:36;;;;;;;6.57;2.87;;;2.90;65.90;;;0.98;50.62;101273.84;10389526;28;96619;-77
2022/01/23 14:51:39;;;;;;;11.00;3.97;;;2.90;65.50;;;0.92;50.69;101282.03;10414694;27;96516;-77
2022/01/23 14:56:42;;;;;;;14.57;6.17;;;2.80;66.30;;;0.85;50.74;101288.50;10400623;27;96588;-77
2022/01/23 15:01:46;;;;;;;11.43;4.23;;;2.80;66.30;;;0.74;51.00;101294.28;10431977;27;96581;-77
2022/01/23 15:06:54;;;;;;;10.37;4.60;;;2.70;66.30;;;0.64;51.47;101299.13;10440351;27;96585;-76
2022/01/23 15:11:57;;;;;;;12.87;5.87;;;2.60;66.60;;;0.53;51.90;101293.59;10440036;27;96561;-77
2022/01/23 15:17:00;;;;;;;12.20;5.47;;;2.50;67.00;;;0.38;52.08;101305.66;10383936;28;96767;-76
2022/01/23 15:22:03;;;;;;;7.67;3.67;;;2.40;67.20;;;0.21;52.39;101310.88;10376140;27;99148;-76
2022/01/23 15:27:07;;;;;;;496.90;160.00;;;2.30;67.60;;;0.09;52.65;101311.47;10417943;27;96453;-76
2022/01/23 15:32:10;;;;;;;91.33;34.47;;;2.10;67.90;;;-0.03;53.31;101323.34;10416451;28;96518;-76
2022/01/23 15:37:14;;;;;;;28.63;14.53;;;2.00;68.10;;;-0.11;53.13;101317.66;10452118;27;96939;-76
2022/01/23 15:42:18;;;;;;;11.63;6.13;;;1.90;68.40;;;-0.20;53.87;101336.34;10457580;27;96491;-76
2022/01/23 15:47:20;;;;;;;7.37;3.80;;;1.80;68.80;;;-0.29;53.88;101338.47;10412754;27;96822;-76
2022/01/23 15:52:23;;;;;;;12.27;4.80;;;1.70;68.90;;;-0.43;54.63;101337.41;10420586;27;96515;-76
2022/01/23 15:57:26;;;;;;;12.50;5.40;;;1.60;69.40;;;-0.67;56.71;101348.03;10368981;27;98109;-75
2022/01/23 16:02:29;;;;;;;9.73;4.40;;;1.40;70.60;;;-0.91;58.50;101355.16;10393252;27;96676;-78
2022/01/23 16:07:32;;;;;;;12.77;6.63;;;1.20;71.90;;;-1.09;59.48;101358.56;10394713;28;96424;-78
2022/01/23 16:12:37;;;;;;;15.60;6.93;;;1.00;73.30;;;-1.20;60.51;101355.56;10383108;27;97961;-77
2022/01/23 16:17:41;;;;;;;49.13;17.30;;;0.80;74.70;;;-1.28;60.66;101355.03;10415085;27;96561;-77
2022/01/23 16:22:45;;;;;;;88.77;24.50;;;0.70;75.50;;;-1.38;60.98;101355.44;10381432;27;96750;-77
2022/01/23 16:27:49;;;;;;;32.87;12.27;;;0.60;76.30;;;-1.45;61.26;101356.59;10378855;27;98340;-77
2022/01/23 16:32:55;;;;;;;14.70;6.83;;;0.60;76.80;;;-1.48;61.37;101355.88;10391943;28;96619;-77
2022/01/23 16:37:58;;;;;;;29.17;11.37;;;0.50;77.30;;;-1.49;61.47;101375.03;10403925;27;98139;-77
2022/01/23 16:43:01;;;;;;;20.73;7.17;;;0.50;77.50;;;-1.51;61.73;101377.69;10436425;27;98364;-78
2022/01/23 16:48:06;;;;;;;15.37;4.80;;;0.50;77.80;;;-1.46;61.40;101398.38;10410619;27;96642;-77
2022/01/23 16:53:09;;;;;;;14.90;5.77;;;0.50;78.00;;;-1.43;61.32;101406.94;10392009;27;96584;-77
2022/01/23 16:58:12;;;;;;;35.30;12.57;;;0.60;78.10;;;-1.42;61.17;101405.16;10410020;27;96546;-78
2022/01/23 17:03:14;;;;;;;15.60;5.80;;;0.60;78.00;;;-1.44;60.90;101407.84;10398323;28;96532;-77
2022/01/23 17:08:18;;;;;;;25.70;12.50;;;0.60;78.50;;;-1.58;61.36;101410.13;10400561;27;96555;-77
2022/01/23 17:13:22;;;;;;;15.53;6.63;;;0.50;79.10;;;-1.76;61.86;101406.50;10407324;27;96950;-77
2022/01/23 17:18:25;;;;;;;14.50;5.37;;;0.40;78.90;;;-1.86;61.70;101412.13;10399365;27;97810;-77
2022/01/23 17:23:28;;;;;;;19.03;7.63;;;0.30;79.10;;;-2.03;62.23;101410.19;10389345;27;96593;-77
2022/01/23 17:28:31;;;;;;;54.63;15.40;;;0.20;79.20;;;-2.18;62.40;101429.81;10400589;27;98274;-77
2022/01/23 17:33:34;;;;;;;48.53;16.73;;;0.10;80.00;;;-2.30;63.47;101432.88;10420635;27;98479;-77
2022/01/23 17:38:38;;;;;;;66.27;21.73;;;0.00;80.00;;;-2.49;64.12;101428.31;10392792;27;98384;-77
2022/01/23 17:43:41;;;;;;;95.27;25.27;;;-0.20;82.90;;;-2.64;64.86;101431.44;10400678;27;96596;-77
2022/01/23 17:53:59;;;;;;;44.13;14.83;;;-0.50;83.40;;;-2.86;65.29;101448.72;10395227;27;98366;-77
2022/01/23 17:59:04;;;;;;;44.30;15.70;;;-0.60;83.30;;;-3.02;66.03;101453.56;10430770;27;96987;-77
2022/01/23 18:04:09;;;;;;;59.13;17.67;;;-0.70;85.50;;;-3.19;66.76;101456.72;10445374;27;98131;-77
2022/01/23 18:09:15;;;;;;;39.13;15.13;;;-0.90;87.70;;;-3.31;67.69;101457.97;10409694;27;96727;-77
2022/01/23 18:14:19;;;;;;;50.53;16.03;;;-1.00;89.30;;;-3.38;68.43;101463.41;10419430;27;96978;-77
2022/01/23 18:19:22;;;;;;;28.43;10.43;;;-1.10;90.80;;;-3.41;68.79;101463.53;10421010;28;96471;-75
2022/01/23 18:24:26;;;;;;;51.20;15.93;;;-1.10;91.50;;;-3.43;69.20;101489.53;10425188;27;96679;-77
2022/01/23 18:29:29;;;;;;;47.77;14.63;;;-1.20;92.60;;;-3.48;69.31;101487.97;10387901;28;98296;-77
2022/01/23 18:34:34;;;;;;;52.57;18.53;;;-1.20;91.30;;;-3.61;69.51;101501.34;10419097;28;96540;-75
2022/01/23 18:39:37;;;;;;;49.77;14.37;;;-1.30;92.30;;;-3.78;69.81;101509.66;10419209;27;96495;-76
2022/01/23 18:44:40;;;;;;;43.43;14.27;;;-1.40;92.60;;;-3.90;70.16;101522.13;10409448;27;96749;-77
2022/01/23 18:49:43;;;;;;;49.50;15.77;;;-1.60;92.30;;;-3.92;70.99;101529.97;10416052;27;98437;-77
2022/01/23 19:00:10;;;;;;;24.63;10.07;;;-1.70;94.60;;;-4.03;71.35;101535.44;10414796;27;97013;-76
2022/01/23 19:05:19;;;;;;;28.17;10.03;;;-1.70;93.50;;;-4.09;71.43;101545.16;10395622;28;96661;-76
2022/01/23 19:10:32;;;;;;;34.83;11.47;;;-1.80;94.30;;;-4.18;71.31;101561.00;10429225;27;96602;-76
2022/01/23 19:15:35;;;;;;;26.57;10.33;;;-1.80;94.60;;;-4.28;71.68;101562.97;10422920;27;96602;-77
2022/01/23 19:20:38;;;;;;;32.97;12.27;;;-1.90;94.70;;;-4.39;71.89;101563.25;10437455;27;97166;-76
2022/01/23 19:25:41;;;;;;;50.83;17.50;;;-2.00;94.10;;;-4.48;72.28;101583.41;10433312;27;96555;-77
2022/01/23 19:30:45;;;;;;;65.03;23.33;;;-2.10;95.20;;;-4.48;73.54;101594.63;10410819;27;96958;-77
2022/01/23 19:35:52;;;;;;;31.87;12.43;;;-2.10;98.70;;;-4.44;73.24;101610.94;10433765;27;96432;-77
2022/01/23 19:46:04;;;;;;;52.37;18.23;;;-2.10;96.60;;;-4.57;73.21;101616.44;10424102;27;96510;-77
2022/01/23 19:51:10;;;;;;;90.97;24.17;;;-2.20;97.60;;;-4.65;73.75;101628.75;10402838;28;96565;-76
2022/01/23 19:56:14;;;;;;;75.07;26.23;;;-2.30;97.80;;;-4.73;73.97;101622.91;10401567;27;96538;-77
2022/01/23 20:01:18;;;;;;;56.40;21.77;;;-2.40;98.90;;;-4.77;74.08;101638.56;10399153;28;97087;-77
2022/01/23 20:06:24;;;;;;;60.10;22.07;;;-2.40;98.70;;;-4.85;74.25;101625.78;10417642;28;96486;-76
2022/01/23 20:16:45;;;;;;;41.83;12.13;;;-2.50;97.20;;;-4.92;74.43;101644.94;10391455;27;96569;-77
2022/01/23 20:21:54;;;;;;;60.50;17.93;;;-2.50;98.30;;;-4.94;74.93;101651.91;10388815;27;98837;-77
2022/01/23 20:27:03;;;;;;;59.43;20.73;;;-2.60;98.10;;;-5.00;74.58;101646.84;10391515;27;97669;-77
2022/01/23 20:32:07;;;;;;;51.43;17.47;;;-2.60;98.90;;;-5.04;74.87;101634.84;10410514;27;96785;-77
2022/01/23 20:37:11;;;;;;;34.70;11.60;;;-2.60;99.90;;;-5.12;74.97;101640.19;10435622;27;96859;-77
2022/01/23 20:42:14;;;;;;;28.30;11.00;;;-2.70;99.20;;;-5.17;75.00;101640.28;10434807;27;96669;-75
2022/01/23 20:47:25;;;;;;;30.27;10.40;;;-2.70;99.90;;;-5.23;75.32;101645.59;10421038;27;97669;-78
2022/01/23 20:57:33;;;;;;;43.47;11.63;;;-2.90;99.90;;;-5.33;75.49;101662.25;10401937;27;98457;-78
2022/01/23 21:02:36;;;;;;;34.90;12.10;;;-2.90;99.90;;;-5.35;76.01;101674.34;10362679;27;97649;-77
2022/01/23 21:07:39;;;;;;;53.47;16.43;;;-2.90;99.90;;;-5.35;75.96;101684.72;10385374;28;97420;-77
2022/01/23 21:12:42;;;;;;;79.80;23.37;;;-3.00;99.90;;;-5.36;75.41;101687.34;10413605;27;96721;-77
2022/01/23 21:18:02;;;;;;;84.43;29.27;;;-3.00;99.90;;;-5.36;76.05;101690.78;10430687;27;96633;-77
2022/01/23 21:44:10;;;;;;;137.07;36.13;;;-3.20;99.90;;;-5.67;76.41;101722.47;10420442;27;96500;-77
2022/01/23 21:49:14;;;;;;;145.00;38.50;;;-3.20;99.90;;;-5.71;76.66;101725.13;10399647;28;96639;-77
2022/01/23 21:54:17;;;;;;;48.57;14.90;;;-3.30;99.90;;;-5.73;77.04;101725.16;10402745;28;96590;-77
2022/01/23 21:59:20;;;;;;;43.50;15.30;;;-3.30;99.90;;;-5.63;77.70;101715.50;10408332;27;96602;-77
2022/01/23 22:04:23;;;;;;;48.50;17.03;;;-3.30;99.90;;;-5.66;77.34;101724.16;10404766;28;96600;-77
2022/01/23 22:09:30;;;;;;;50.00;15.80;;;-3.30;99.90;;;-5.76;76.74;101725.19;10385419;27;96655;-77
2022/01/23 22:19:55;;;;;;;50.90;16.60;;;-3.40;99.90;;;-6.05;76.90;101732.66;10409934;27;96652;-77
2022/01/23 22:30:19;;;;;;;61.10;18.97;;;-3.70;99.90;;;-6.30;77.70;101738.19;10415390;27;97040;-77
2022/01/23 22:35:22;;;;;;;56.13;16.53;;;-3.70;99.90;;;-6.33;78.20;101743.44;10402867;28;96463;-77
2022/01/23 22:40:26;;;;;;;46.10;14.37;;;-3.80;99.90;;;-6.35;78.43;101757.28;10432426;27;96724;-77
2022/01/23 22:45:46;;;;;;;42.07;14.03;;;-3.90;99.90;;;-6.40;78.54;101757.34;10395339;27;98018;-77
2022/01/23 22:50:49;;;;;;;45.70;16.23;;;-3.90;99.90;;;-6.45;78.85;101766.91;10404824;28;96523;-77
2022/01/23 22:55:51;;;;;;;50.40;17.37;;;-4.00;99.90;;;-6.53;78.88;101772.19;10401778;27;96556;-77
2022/01/23 23:00:55;;;;;;;50.70;16.20;;;-4.00;99.90;;;-6.61;78.63;101767.97;10401546;28;96789;-77
2022/01/23 23:05:58;;;;;;;41.03;15.90;;;-4.10;99.90;;;-6.70;78.96;101760.34;10420368;28;96470;-78
2022/01/23 23:11:04;;;;;;;37.77;13.03;;;-4.20;99.90;;;-6.77;79.17;101755.28;10438264;27;96626;-77
2022/01/23 23:16:18;;;;;;;39.27;12.90;;;-4.30;99.90;;;-6.83;79.43;101760.53;10416724;28;96587;-77
2022/01/23 23:26:35;;;;;;;27.97;10.33;;;-4.40;99.90;;;-6.89;79.62;101786.44;10443808;27;96677;-77
2022/01/23 23:31:39;;;;;;;29.77;10.53;;;-4.40;99.90;;;-6.91;80.04;101783.00;10402942;27;96570;-77
2022/01/23 23:36:42;;;;;;;26.87;9.73;;;-4.40;99.90;;;-6.97;80.24;101785.66;10414961;27;96488;-77
2022/01/23 23:41:50;;;;;;;30.87;10.33;;;-4.50;99.90;;;-7.05;80.29;101795.25;10393073;27;96584;-77
2022/01/23 23:46:58;;;;;;;26.20;10.63;;;-4.50;99.90;;;-7.14;79.86;101797.91;10416307;27;96439;-77
2022/01/23 23:52:01;;;;;;;23.07;9.47;;;-4.60;99.90;;;-7.22;79.90;101791.97;10374804;28;96472;-77
2022/01/23 23:57:04;;;;;;;23.03;9.37;;;-4.70;99.90;;;-7.30;80.33;101808.41;10397137;27;96557;-77
